Latest Weather Observations for Wadeye (Port Keats)

IDD60801

Issued at 9:35 am CST Saturday 30 August 2014 (issued every 30 minutes, with the page automatically refreshed every 10 minutes)

About weather observations | Map of weather stations | Latest weather observations for NT | Other Formats
Station Details ID: 014948 Name: PORT KEATS AIRPORT Lat: -14.25 Lon: 129.53 Height: 28.0 m
Data from the previous 72 hours. | See also: Recent months at Wadeye (Port Keats)
Date/Time
CST
Temp
°C
App
Temp
°C
Dew
Point
Rel
Hum
%
Delta-T
°C
Wind Press
QNH
hPa
Press
MSL
hPa
Rain
since 9 am
mm
Dir
 
Spd
km/h
Gust
km/h
Spd
kts
Gust
kts
30/09:30am 27.0 21.8 -0.1 17 12.6 ESE 17 20 9 11 1015.9 - 0.0
30/09:00am 25.3 20.4 -0.7 18 11.8 SE 15 20 8 11 1015.8 1015.6 0.0
30/08:30am 24.3 19.0 -0.8 19 11.3 SE 17 22 9 12 1015.6 - 0.0
30/08:00am 23.2 17.3 -2.4 18 11.1 SE 19 26 10 14 1015.3 - 0.0
30/07:30am 21.9 16.4 -2.0 20 10.3 SSE 17 20 9 11 1015.1 - 0.0
30/07:00am 21.4 16.0 -1.2 22 9.9 SE 17 20 9 11 1014.7 - 0.0
30/06:30am 19.7 15.4 1.2 29 8.4 SSE 13 19 7 10 1014.5 - 0.0
30/06:00am 17.3 14.0 4.6 43 6.0 SSE 11 17 6 9 1014.2 1014.0 0.0
30/05:30am 15.9 13.4 8.2 60 3.9 SSE 11 13 6 7 1013.9 - 0.0
30/05:00am 12.1 11.6 9.3 83 1.4 SSW 2 9 1 5 1013.8 - 0.0
30/04:30am 12.1 12.0 9.5 84 1.3 CALM 0 0 0 0 1013.7 - 0.0
30/04:00am 12.0 10.6 9.6 85 1.2 SSW 7 7 4 4 1013.7 - 0.0
30/03:30am 12.7 12.7 9.7 82 1.5 CALM 0 0 0 0 1013.8 - 0.0
30/03:00am 13.5 13.7 10.5 82 1.6 CALM 0 2 0 1 1014.0 1013.8 0.0
30/02:30am 13.8 13.9 10.2 79 1.9 CALM 0 7 0 4 1014.2 - 0.0
30/02:00am 15.0 14.7 11.4 79 1.9 SSE 4 7 2 4 1014.4 - 0.0
30/01:30am 14.4 13.4 11.0 80 1.8 SSW 7 11 4 6 1014.4 - 0.0
30/01:00am 15.0 15.3 10.8 76 2.2 CALM 0 0 0 0 1014.4 - 0.0
30/12:30am 15.3 15.0 11.5 78 2.0 S 4 7 2 4 1014.5 - 0.0
30/12:00am 15.2 15.7 11.6 79 1.9 CALM 0 6 0 3 1014.5 1014.3 0.0
 
Date/Time
CST
Temp
°C
App
Temp
°C
Dew
Point
Rel
Hum
%
Delta-T
°C
Wind Press
QNH
hPa
Press
MSL
hPa
Rain
since 9 am
mm
Dir
 
Spd
km/h
Gust
km/h
Spd
kts
Gust
kts
29/11:30pm 15.6 14.9 11.4 76 2.3 SSW 6 7 3 4 1014.5 - 0.0
29/11:00pm 15.5 14.6 11.3 76 2.3 SSW 7 9 4 5 1014.4 - 0.0
29/10:30pm 16.6 17.0 11.3 71 2.9 CALM 0 0 0 0 1014.4 - 0.0
29/10:00pm 17.5 16.6 11.3 67 3.4 S 7 9 4 5 1014.4 - 0.0
29/09:30pm 18.5 18.1 12.3 67 3.4 S 6 7 3 4 1014.2 - 0.0
29/09:00pm 19.1 19.7 11.9 63 4.0 CALM 0 0 0 0 1013.9 1013.7 0.0
29/08:30pm 20.3 19.9 12.5 61 4.4 SW 6 7 3 4 1013.8 - 0.0
29/08:00pm 21.8 21.9 13.9 61 4.6 WSW 6 9 3 5 1013.6 - 0.0
29/07:30pm 23.0 22.9 13.8 56 5.4 W 7 9 4 5 1013.4 - 0.0
29/07:00pm 24.5 24.0 12.5 47 6.9 WNW 7 11 4 6 1013.2 - 0.0
29/06:30pm 26.3 24.8 10.5 37 8.9 WNW 9 13 5 7 1013.0 - 0.0
29/06:00pm 28.3 25.3 5.8 24 11.8 NW 11 17 6 9 1012.8 1012.6 0.0
29/05:30pm 29.5 25.8 4.2 20 13.0 NW 13 17 7 9 1012.6 - 0.0
29/05:00pm 29.4 26.0 4.1 20 12.9 WNW 11 17 6 9 1012.4 - 0.0
29/04:30pm 30.0 25.8 3.9 19 13.3 NW 15 20 8 11 1012.4 - 0.0
29/04:00pm 29.8 26.2 5.1 21 12.9 WNW 13 20 7 11 1012.5 - 0.0
29/03:30pm 30.2 26.0 5.5 21 13.0 NW 17 24 9 13 1012.5 - 0.0
29/03:00pm 30.3 25.7 5.6 21 13.0 NW 19 24 10 13 1012.8 1012.6 0.0
29/02:30pm 32.9 29.0 -1.4 11 16.3 E 9 17 5 9 1013.0 - 0.0
29/02:00pm 31.9 25.8 -3.5 10 16.2 SE 19 24 10 13 1013.5 - 0.0
29/01:30pm 31.9 26.9 -1.0 12 15.7 ENE 15 26 8 14 1013.9 - 0.0
29/01:00pm 31.8 26.5 -3.5 10 16.1 E 15 24 8 13 1014.7 - 0.0
29/12:30pm 30.9 26.2 -1.8 12 15.2 ESE 13 22 7 12 1015.1 - 0.0
29/12:00pm 30.5 25.5 -1.0 13 14.8 E 15 26 8 14 1015.7 1015.5 0.0
29/11:30am 30.1 23.4 -1.3 13 14.7 E 24 33 13 18 1015.9 - 0.0
29/11:00am 29.3 23.7 0.0 15 13.9 E 19 30 10 16 1016.2 - 0.0
29/10:30am 28.7 23.7 1.3 17 13.3 ESE 17 22 9 12 1016.5 - 0.0
29/10:00am 27.8 22.7 0.5 17 13.0 ESE 17 26 9 14 1016.6 - 0.0
29/09:30am 25.8 21.3 -0.3 18 12.0 ESE 13 22 7 12 1016.4 - 0.0
29/09:00am 24.2 19.1 -1.6 18 11.4 ESE 15 24 8 13 1016.2 1016.0 0.0
29/08:30am 23.0 17.4 -3.3 17 11.2 SE 17 24 9 13 1015.9 - 0.0
29/08:00am 21.9 16.1 -5.0 16 11.0 SE 17 24 9 13 1015.5 - 0.0
29/07:30am 21.1 15.1 -6.5 15 10.8 SE 17 24 9 13 1015.0 - 0.0
29/07:00am 20.5 14.9 -6.1 16 10.4 SE 15 20 8 11 1014.8 - 0.0
29/06:30am 20.9 15.3 -6.7 15 10.8 SE 15 20 8 11 1014.6 - 0.0
29/06:00am 21.2 15.8 -4.8 17 10.6 SE 15 20 8 11 1014.4 1014.2 0.0
29/05:30am 16.4 12.4 0.5 34 6.9 SSE 11 13 6 7 1014.2 - 0.0
29/05:00am 18.3 14.0 -1.5 26 8.4 SSE 11 17 6 9 1014.1 - 0.0
29/04:30am 21.8 16.8 -1.5 21 10.2 SE 15 20 8 11 1014.2 - 0.0
29/04:19am 21.2 16.8 0.4 25 9.4 SE 13 17 7 9 1014.1 - 0.0
29/04:00am 15.4 12.4 1.9 40 6.0 S 7 11 4 6 1013.9 - 0.0
29/03:30am 15.2 11.8 2.1 41 5.8 S 9 13 5 7 1013.6 - 0.0
29/03:00am 14.5 11.5 2.1 43 5.5 S 7 9 4 5 1013.5 1013.3 0.0
29/02:30am 17.7 14.0 -0.1 30 7.7 S 9 13 5 7 1013.5 - 0.0
29/02:00am 18.2 14.0 -0.6 28 8.1 SSW 11 15 6 8 1013.7 - 0.0
29/01:30am 18.7 14.9 -0.7 27 8.4 S 9 13 5 7 1013.8 - 0.0
29/01:00am 18.6 14.9 0.2 29 8.1 S 9 11 5 6 1013.9 - 0.0
29/12:30am 18.7 15.3 1.7 32 7.7 S 9 11 5 6 1014.1 - 0.0
29/12:00am 17.3 14.5 3.2 39 6.5 S 7 11 4 6 1014.2 1014.0 0.0
 
Date/Time
CST
Temp
°C
App
Temp
°C
Dew
Point
Rel
Hum
%
Delta-T
°C
Wind Press
QNH
hPa
Press
MSL
hPa
Rain
since 9 am
mm
Dir
 
Spd
km/h
Gust
km/h
Spd
kts
Gust
kts
28/11:30pm 16.8 14.1 3.5 41 6.1 S 7 11 4 6 1014.3 - 0.0
28/11:00pm 16.0 13.3 3.8 44 5.6 S 7 9 4 5 1014.4 - 0.0
28/10:30pm 16.4 13.2 3.1 41 6.1 S 9 11 5 6 1014.4 - 0.0
28/10:00pm 16.4 13.4 2.1 38 6.4 SSW 7 9 4 5 1014.4 - 0.0
28/09:30pm 17.8 15.5 0.5 31 7.6 S 2 9 1 5 1014.4 - 0.0
28/09:00pm 19.5 17.4 -0.5 26 8.7 CALM 0 0 0 0 1014.3 1014.1 0.0
28/08:30pm 21.9 19.0 -0.8 22 10.0 SSE 4 6 2 3 1014.0 - 0.0
28/08:00pm 22.6 19.0 -2.2 19 10.7 SSW 7 9 4 5 1013.7 - 0.0
28/07:30pm 25.2 21.5 -3.2 15 12.3 SSW 7 9 4 5 1013.3 - 0.0
28/07:00pm 26.8 23.9 -3.9 13 13.3 S 2 7 1 4 1013.1 - 0.0
28/06:30pm 28.4 24.1 -4.9 11 14.4 SSW 9 15 5 8 1012.5 - 0.0
28/06:00pm 29.9 25.3 -3.7 11 15.0 S 11 26 6 14 1012.1 1011.9 0.0
28/05:30pm 31.1 26.0 -5.5 9 16.0 S 13 20 7 11 1012.0 - 0.0
28/05:00pm 31.5 26.4 -5.2 9 16.2 SSE 13 20 7 11 1011.9 - 0.0
28/04:30pm 31.8 26.4 -4.9 9 16.3 SE 15 20 8 11 1011.9 - 0.0
28/04:00pm 31.5 25.6 -5.2 9 16.2 SSE 17 30 9 16 1011.9 - 0.0
28/03:30pm 31.8 26.4 -4.9 9 16.3 ESE 15 24 8 13 1012.2 - 0.0
28/03:00pm 31.9 26.6 -3.5 10 16.2 ESE 15 26 8 14 1012.5 1012.3 0.0
28/02:30pm 31.7 27.2 -3.6 10 16.1 ESE 11 24 6 13 1012.7 - 0.0
28/02:00pm 31.4 26.5 -3.8 10 15.9 ESE 13 26 7 14 1013.2 - 0.0
28/01:30pm 31.2 25.5 -4.0 10 15.8 E 17 24 9 13 1013.8 - 0.0
28/01:00pm 31.0 24.7 -4.1 10 15.7 ESE 20 33 11 18 1014.3 - 0.0
28/12:30pm 30.0 25.0 -1.4 13 14.6 ESE 15 26 8 14 1014.9 - 0.0
28/12:00pm 30.1 24.7 -1.3 13 14.7 SE 17 30 9 16 1015.7 1015.5 0.0
28/11:30am 28.8 21.9 -2.3 13 14.1 SE 24 35 13 19 1015.9 - 0.0
28/11:00am 29.0 23.0 -1.2 14 14.0 E 20 32 11 17 1016.2 - 0.0
28/10:30am 28.0 21.6 -2.0 14 13.6 E 22 32 12 17 1016.3 - 0.0
28/10:00am 27.6 22.7 -0.5 16 13.1 E 15 24 8 13 1016.3 - 0.0
28/09:30am 26.2 21.0 0.0 18 12.2 ESE 17 26 9 14 1016.1 - 0.0
28/09:00am 24.7 19.0 -0.4 19 11.4 ESE 19 24 10 13 1015.8 1015.6 0.0
28/08:30am 23.4 17.4 -1.5 19 11.0 ESE 20 30 11 16 1015.7 - 0.0
28/08:00am 22.0 16.5 -2.0 20 10.4 SE 17 22 9 12 1015.5 - 0.0
28/07:30am 20.8 15.6 -3.0 20 10.0 SE 15 20 8 11 1015.3 - 0.0
28/07:00am 20.4 15.1 -3.3 20 9.8 SE 15 19 8 10 1014.9 - 0.0
28/06:30am 20.4 15.2 -2.6 21 9.7 SE 15 17 8 9 1014.5 - 0.0
28/06:00am 17.5 13.5 -2.2 26 8.1 SSE 9 13 5 7 1014.3 1014.1 0.0
28/05:30am 19.5 15.4 -3.4 21 9.4 SSE 9 13 5 7 1014.0 - 0.0
28/05:00am 21.1 16.9 -4.1 18 10.4 SE 9 11 5 6 1013.8 - 0.0
28/04:30am 22.8 17.0 -4.3 16 11.3 ESE 17 22 9 12 1013.6 - 0.0
28/04:00am 23.3 16.9 -4.8 15 11.6 SSE 20 28 11 15 1013.3 - 0.0
28/03:30am 22.2 17.9 0.7 24 9.8 SSE 13 20 7 11 1013.3 - 0.0
28/03:27am 21.0 16.8 1.8 28 8.9 SSE 13 17 7 9 1013.3 - 0.0
28/03:00am 15.4 13.1 5.9 53 4.6 SSE 7 9 4 5 1013.3 1013.1 0.0
28/02:30am 16.2 14.9 5.8 50 5.0 SSE 2 7 1 4 1013.6 - 0.0
28/02:00am 16.1 13.9 6.3 52 4.8 S 7 11 4 6 1013.7 - 0.0
28/01:30am 15.8 13.7 6.8 55 4.4 S 7 13 4 7 1013.9 - 0.0
28/01:00am 15.8 14.3 7.0 56 4.3 S 4 7 2 4 1014.1 - 0.0
28/12:30am 16.4 15.5 7.6 56 4.4 S 2 6 1 3 1014.3 - 0.0
28/12:00am 16.2 15.3 7.7 57 4.3 S 2 7 1 4 1014.3 1014.1 0.0
 
Date/Time
CST
Temp
°C
App
Temp
°C
Dew
Point
Rel
Hum
%
Delta-T
°C
Wind Press
QNH
hPa
Press
MSL
hPa
Rain
since 9 am
mm
Dir
 
Spd
km/h
Gust
km/h
Spd
kts
Gust
kts
27/11:30pm 16.5 14.6 7.7 56 4.4 SSW 7 9 4 5 1014.2 - 0.0
27/11:00pm 17.5 16.5 7.5 52 5.0 S 2 6 1 3 1014.2 - 0.0
27/10:30pm 18.3 17.3 7.4 49 5.5 S 2 7 1 4 1014.1 - 0.0
27/10:00pm 18.5 17.5 7.3 48 5.7 SSW 2 11 1 6 1014.2 - 0.0
27/09:30pm 20.0 18.5 6.7 42 6.7 S 4 7 2 4 1014.1 - 0.0
27/09:00pm 21.2 19.6 6.3 38 7.5 SSE 4 7 2 4 1013.8 1013.6 0.0
27/08:30pm 23.3 21.6 5.7 32 8.9 S 4 6 2 3 1013.5 - 0.0
27/08:00pm 24.3 22.0 5.6 30 9.5 SSW 7 9 4 5 1013.3 - 0.0
27/07:30pm 25.1 22.9 6.3 30 9.7 SW 7 11 4 6 1012.9 - 0.0
27/07:00pm 27.5 25.3 6.3 26 11.1 SSW 7 11 4 6 1012.3 - 0.0
27/06:30pm 29.2 26.6 6.0 23 12.2 NNW 9 11 5 6 1011.9 - 0.0
27/06:00pm 30.2 27.2 6.1 22 12.8 NNW 11 15 6 8 1011.7 1011.5 0.0
27/05:30pm 31.1 28.1 6.2 21 13.3 NW 11 17 6 9 1011.5 - 0.0
27/05:00pm 32.1 29.5 6.3 20 13.9 NNW 9 15 5 8 1011.3 - 0.0
27/04:30pm 32.0 27.9 2.1 15 15.0 SE 13 20 7 11 1011.3 - 0.0
27/04:00pm 32.2 28.5 2.3 15 15.1 ESE 11 17 6 9 1011.4 - 0.0
27/03:30pm 32.3 27.8 2.4 15 15.1 ESE 15 24 8 13 1011.5 - 0.0
27/03:00pm 32.9 28.2 2.9 15 15.4 SE 17 28 9 15 1011.7 1011.5 0.0
27/02:30pm 31.5 27.3 1.8 15 14.8 SE 13 26 7 14 1012.0 - 0.0
27/02:00pm 31.9 26.6 3.0 16 14.7 ESE 20 32 11 17 1012.5 - 0.0
27/01:30pm 31.4 26.8 1.7 15 14.8 ENE 15 30 8 16 1012.9 - 0.0
27/01:00pm 31.3 25.8 1.6 15 14.7 E 20 30 11 16 1013.4 - 0.0
27/12:30pm 30.6 25.3 2.8 17 14.0 ESE 20 30 11 16 1014.0 - 0.0
27/12:00pm 31.2 24.8 3.3 17 14.2 E 26 35 14 19 1014.7 1014.5 0.0
27/11:30am 30.0 24.1 3.9 19 13.3 E 24 33 13 18 1015.0 - 0.0
27/11:00am 29.5 24.6 4.9 21 12.7 E 20 26 11 14 1015.3 - 0.0
27/10:30am 27.8 23.4 4.8 23 11.8 E 17 24 9 13 1015.7 - 0.0
27/10:00am 27.1 22.3 4.8 24 11.4 ESE 19 24 10 13 1015.9 - 0.0

Other Formats:

Comma delimited format used in spreadsheet applications
http://www.bom.gov.au/fwo/IDD60801/IDD60801.95111.axf

JavaScript Object Notation format (JSON) in row-major order
http://www.bom.gov.au/fwo/IDD60801/IDD60801.95111.json